createdAt,value
2022-08-29T00:01:01.082Z,58.15
2022-08-29T00:03:32.930Z,59.45
2022-08-29T00:06:03.607Z,56.72
2022-08-29T00:08:32.818Z,54.28
2022-08-29T00:11:01.865Z,55.38
2022-08-29T00:13:36.192Z,65.38
2022-08-29T00:16:05.779Z,54.40
2022-08-29T00:18:43.891Z,63.38
2022-08-29T00:21:13.359Z,63.38
2022-08-29T00:23:42.384Z,60.85
2022-08-29T00:28:51.285Z,61.13
2022-08-29T00:31:25.582Z,57.28
2022-08-29T00:33:57.253Z,60.95
2022-08-29T00:38:59.852Z,54.78
2022-08-29T00:41:28.945Z,47.60
2022-08-29T00:43:58.212Z,56.63
2022-08-29T00:46:56.277Z,47.55
2022-08-29T00:49:38.807Z,47.63
2022-08-29T00:52:13.470Z,46.13
2022-08-29T00:54:45.224Z,45.45
2022-08-29T00:57:21.660Z,46.45
2022-08-29T00:59:52.694Z,49.15
2022-08-29T01:02:22.389Z,44.53
2022-08-29T01:04:53.867Z,52.65
2022-08-29T01:07:28.706Z,49.10
2022-08-29T01:09:57.912Z,41.20
2022-08-29T01:12:26.649Z,46.20
2022-08-29T01:14:58.597Z,45.20
2022-08-29T01:20:05.480Z,44.95
2022-08-29T01:22:47.063Z,39.47
2022-08-29T01:25:23.145Z,39.75
2022-08-29T01:28:00.408Z,44.78
2022-08-29T01:30:35.201Z,35.42
2022-08-29T01:33:04.428Z,34.13
2022-08-29T01:35:34.019Z,37.70
2022-08-29T01:38:09.146Z,26.40
2022-08-29T01:40:40.799Z,29.83
2022-08-29T01:48:14.526Z,35.30
2022-08-29T01:50:44.042Z,26.63
2022-08-29T01:55:50.208Z,26.05
2022-08-29T01:58:19.669Z,25.58
2022-08-29T02:00:49.157Z,26.80
2022-08-29T02:03:18.685Z,24.77
2022-08-29T02:05:48.603Z,22.33
2022-08-29T02:08:20.370Z,25.63
2022-08-29T02:10:51.929Z,24.55
2022-08-29T02:13:21.127Z,23.98
2022-08-29T02:15:50.263Z,25.85
2022-08-29T02:18:20.229Z,25.10
2022-08-29T02:20:50.326Z,21.48
2022-08-29T02:23:30.507Z,25.17
2022-08-29T02:26:02.502Z,23.00
2022-08-29T02:28:32.013Z,28.00
2022-08-29T02:31:01.517Z,27.00
2022-08-29T02:33:36.232Z,21.48
2022-08-29T02:36:08.387Z,22.80
2022-08-29T02:41:14.050Z,29.08
2022-08-29T02:43:49.588Z,26.30
2022-08-29T02:46:20.470Z,25.55
2022-08-29T02:48:58.237Z,20.60
2022-08-29T02:51:32.568Z,23.52
2022-08-29T02:54:02.914Z,22.17
2022-08-29T02:56:33.928Z,22.60
2022-08-29T02:59:03.026Z,29.92
2022-08-29T03:01:33.022Z,17.88
2022-08-29T03:04:08.987Z,24.27
2022-08-29T03:06:38.175Z,21.80
2022-08-29T03:09:08.156Z,22.25
2022-08-29T03:11:39.463Z,23.40
2022-08-29T03:14:08.802Z,23.95
2022-08-29T03:16:38.663Z,23.25
2022-08-29T03:19:07.834Z,22.20
2022-08-29T03:21:37.064Z,21.23
2022-08-29T03:24:06.319Z,22.63
2022-08-29T03:26:42.522Z,21.75
2022-08-29T03:29:16.630Z,24.30
2022-08-29T03:31:46.657Z,24.30
2022-08-29T03:34:16.270Z,23.52
2022-08-29T03:36:45.484Z,28.45
2022-08-29T03:39:14.601Z,28.17
2022-08-29T03:41:50.732Z,24.83
2022-08-29T03:44:21.768Z,22.10
2022-08-29T03:46:51.058Z,21.90
2022-08-29T03:49:20.190Z,24.05
2022-08-29T03:51:49.623Z,24.95
2022-08-29T03:54:18.726Z,26.95
2022-08-29T03:56:48.231Z,21.50
2022-08-29T03:59:20.323Z,24.42
2022-08-29T04:01:49.751Z,23.73
2022-08-29T04:04:32.782Z,21.60
2022-08-29T04:07:08.461Z,24.35
2022-08-29T04:09:39.275Z,22.40
2022-08-29T04:12:10.933Z,26.60
2022-08-29T04:14:48.144Z,22.70
2022-08-29T04:17:17.271Z,22.17
2022-08-29T04:19:48.948Z,29.08
2022-08-29T04:22:19.439Z,25.02
2022-08-29T04:24:48.545Z,28.67
2022-08-29T04:27:17.620Z,22.75
2022-08-29T04:29:49.810Z,26.88
2022-08-29T04:32:19.524Z,27.98
2022-08-29T04:34:48.694Z,25.00
2022-08-29T04:39:58.489Z,23.48
2022-08-29T04:42:28.273Z,28.98
2022-08-29T04:44:59.573Z,28.08
2022-08-29T04:47:28.843Z,25.33
2022-08-29T04:49:58.586Z,27.40
2022-08-29T04:52:29.165Z,23.83
2022-08-29T04:54:59.065Z,24.33
2022-08-29T04:57:29.146Z,34.60
2022-08-29T05:00:01.080Z,34.70
2022-08-29T05:02:30.390Z,26.98
2022-08-29T05:04:59.482Z,33.83
2022-08-29T05:07:28.978Z,30.35
2022-08-29T05:10:00.569Z,27.60
2022-08-29T05:12:36.164Z,33.80
2022-08-29T05:15:08.852Z,32.17
2022-08-29T05:17:43.625Z,28.98
2022-08-29T05:20:17.793Z,36.85
2022-08-29T05:22:46.989Z,31.40
2022-08-29T05:25:18.475Z,33.95
2022-08-29T05:30:35.214Z,31.83
2022-08-29T05:33:05.300Z,38.67
2022-08-29T05:35:34.734Z,34.28
2022-08-29T05:38:09.186Z,38.10
2022-08-29T05:40:39.415Z,35.05
2022-08-29T05:43:09.710Z,35.17
2022-08-29T05:45:46.003Z,39.53
2022-08-29T05:48:16.939Z,37.53
2022-08-29T05:50:46.490Z,39.65
2022-08-29T05:53:18.886Z,41.03
2022-08-29T05:55:48.149Z,45.35
2022-08-29T05:58:17.932Z,44.67
2022-08-29T06:00:50.556Z,48.35
2022-08-29T06:03:20.520Z,41.80
2022-08-29T06:05:53.446Z,47.67
2022-08-29T06:08:22.925Z,42.95
2022-08-29T06:10:52.069Z,61.58
2022-08-29T06:13:21.487Z,98.03
2022-08-29T06:15:53.074Z,44.53
2022-08-29T06:18:34.337Z,50.53
2022-08-29T06:21:06.671Z,49.92
2022-08-29T06:23:42.631Z,48.67
2022-08-29T06:26:13.678Z,45.70
2022-08-29T06:28:45.493Z,41.33
2022-08-29T06:31:20.298Z,42.10
2022-08-29T06:33:51.880Z,41.60
2022-08-29T06:38:50.363Z,47.25
2022-08-29T06:41:20.283Z,54.90
2022-08-29T06:43:50.876Z,40.35
2022-08-29T06:46:29.774Z,43.70
2022-08-29T06:49:00.461Z,41.75
2022-08-29T06:51:37.659Z,48.42
2022-08-29T06:54:13.716Z,46.15
2022-08-29T06:56:46.083Z,44.83
2022-08-29T06:59:15.434Z,44.05
2022-08-29T07:01:47.553Z,42.50
2022-08-29T07:04:20.619Z,42.20
2022-08-29T07:06:51.016Z,39.13
2022-08-29T07:09:20.273Z,42.03
2022-08-29T07:11:49.404Z,41.97
2022-08-29T07:14:18.477Z,37.25
2022-08-29T07:16:49.750Z,40.78
2022-08-29T07:19:24.061Z,41.72
2022-08-29T07:21:53.934Z,37.20
2022-08-29T07:24:27.509Z,35.65
2022-08-29T07:26:58.797Z,43.65
2022-08-29T07:31:58.453Z,31.88
2022-08-29T07:34:27.851Z,56.42
2022-08-29T07:36:56.949Z,31.02
2022-08-29T07:39:26.434Z,32.30
2022-08-29T07:41:55.639Z,31.13
2022-08-29T07:44:24.766Z,35.53
2022-08-29T07:47:07.210Z,30.40
2022-08-29T07:49:41.493Z,30.02
2022-08-29T07:52:12.002Z,26.20
2022-08-29T07:54:41.160Z,28.58
2022-08-29T07:57:10.202Z,27.05
2022-08-29T07:59:41.595Z,23.95
2022-08-29T08:02:13.291Z,22.83
2022-08-29T08:04:42.665Z,25.67
2022-08-29T08:07:16.712Z,23.35
2022-08-29T08:09:46.804Z,22.30
2022-08-29T08:12:22.667Z,20.33
2022-08-29T08:14:51.907Z,16.42
2022-08-29T08:17:23.025Z,20.58
2022-08-29T08:19:53.111Z,18.45
2022-08-29T08:22:22.230Z,14.93
2022-08-29T08:24:51.440Z,18.42
2022-08-29T08:27:20.739Z,17.98
2022-08-29T08:29:49.778Z,23.35
2022-08-29T08:32:18.867Z,22.92
2022-08-29T08:34:50.125Z,32.17
2022-08-29T08:37:28.019Z,27.27
2022-08-29T08:40:04.460Z,23.27
2022-08-29T08:42:42.324Z,15.00
2022-08-29T08:45:13.597Z,16.02
2022-08-29T08:47:47.061Z,11.85
2022-08-29T08:50:30.843Z,15.43
2022-08-29T08:53:07.536Z,17.60
2022-08-29T08:55:42.853Z,16.85
2022-08-29T08:58:28.962Z,19.75
2022-08-29T09:01:03.103Z,17.08
2022-08-29T09:04:05.123Z,17.27
2022-08-29T09:06:55.148Z,23.17
2022-08-29T09:09:35.475Z,16.25
2022-08-29T09:12:17.825Z,18.30
2022-08-29T09:14:59.773Z,13.95
2022-08-29T09:17:36.705Z,26.40
2022-08-29T09:20:10.371Z,20.83
2022-08-29T09:22:44.318Z,13.40
2022-08-29T09:25:14.885Z,12.23
2022-08-29T09:27:49.964Z,15.65
2022-08-29T09:30:26.207Z,17.17
2022-08-29T09:33:00.322Z,14.68
2022-08-29T09:35:36.670Z,14.23
2022-08-29T09:38:14.517Z,11.07
2022-08-29T09:40:54.266Z,16.75
2022-08-29T09:43:28.624Z,14.40
2022-08-29T09:46:18.364Z,17.00
2022-08-29T09:48:49.798Z,37.15
2022-08-29T09:51:29.804Z,22.77
2022-08-29T09:54:23.012Z,29.60
2022-08-29T09:56:56.217Z,22.90
2022-08-29T09:59:33.485Z,24.65
2022-08-29T10:02:20.654Z,14.48
2022-08-29T10:04:57.876Z,14.70
2022-08-29T10:07:29.465Z,17.33
2022-08-29T10:10:03.579Z,18.27
2022-08-29T10:12:49.083Z,12.05
2022-08-29T10:15:46.581Z,14.93
2022-08-29T10:18:34.039Z,15.90
2022-08-29T10:21:14.345Z,16.33
2022-08-29T10:24:15.938Z,13.65
2022-08-29T10:27:02.749Z,21.98
2022-08-29T10:29:48.597Z,31.25
2022-08-29T10:32:35.670Z,24.52
2022-08-29T10:35:13.403Z,25.35
2022-08-29T10:37:56.626Z,23.52
2022-08-29T10:40:30.720Z,20.17
2022-08-29T10:43:25.883Z,25.75
2022-08-29T10:46:20.270Z,21.65
2022-08-29T10:48:59.927Z,20.23
2022-08-29T10:51:40.298Z,21.70
2022-08-29T10:54:20.844Z,22.33
2022-08-29T10:56:50.924Z,22.13
2022-08-29T10:59:34.199Z,26.17
2022-08-29T11:02:10.771Z,29.27
2022-08-29T11:04:50.575Z,27.98
2022-08-29T11:07:25.506Z,25.83
2022-08-29T11:09:58.481Z,31.20
2022-08-29T11:12:36.034Z,32.58
2022-08-29T11:15:15.934Z,21.80
2022-08-29T11:17:57.372Z,21.15
2022-08-29T11:23:03.150Z,15.55
2022-08-29T11:25:46.592Z,14.65
2022-08-29T11:28:26.607Z,17.75
2022-08-29T11:31:11.741Z,12.57
2022-08-29T11:33:49.087Z,19.25
2022-08-29T11:36:32.398Z,12.85
2022-08-29T11:39:31.663Z,18.38
2022-08-29T11:42:08.033Z,21.23
2022-08-29T11:44:40.802Z,16.05
2022-08-29T11:47:41.163Z,36.70
2022-08-29T11:50:24.133Z,20.27
2022-08-29T11:52:57.137Z,11.52
2022-08-29T11:55:35.349Z,19.60
2022-08-29T11:58:46.372Z,16.13
2022-08-29T12:01:50.406Z,17.50
2022-08-29T12:04:56.789Z,17.92
2022-08-29T12:07:37.160Z,22.38
2022-08-29T12:10:09.603Z,16.92
2022-08-29T12:12:43.469Z,24.38
2022-08-29T12:15:54.394Z,23.42
2022-08-29T12:18:46.823Z,27.10
2022-08-29T12:21:46.767Z,30.75
2022-08-29T12:24:57.264Z,21.13
2022-08-29T12:27:59.323Z,23.70
2022-08-29T12:30:28.837Z,21.85
2022-08-29T12:33:10.184Z,16.90
2022-08-29T12:36:10.523Z,17.85
2022-08-29T12:38:55.797Z,13.07
2022-08-29T12:41:46.281Z,24.33
2022-08-29T12:44:17.858Z,22.80
2022-08-29T12:46:52.190Z,17.98
2022-08-29T12:49:25.035Z,17.80
2022-08-29T12:57:25.953Z,17.35
2022-08-29T12:59:58.784Z,15.73
2022-08-29T13:02:32.250Z,14.57
2022-08-29T13:05:02.295Z,15.10
2022-08-29T13:10:20.167Z,17.30
2022-08-29T13:12:51.666Z,13.68
2022-08-29T13:15:28.667Z,16.40
2022-08-29T13:18:01.605Z,16.58
2022-08-29T13:20:48.793Z,12.15
2022-08-29T13:23:27.471Z,13.55
2022-08-29T13:26:00.834Z,16.17
2022-08-29T13:28:37.920Z,16.85
2022-08-29T13:31:26.492Z,15.38
2022-08-29T13:34:26.031Z,16.33
2022-08-29T13:37:02.059Z,18.85
2022-08-29T13:39:45.432Z,13.80
2022-08-29T13:42:27.077Z,13.63
2022-08-29T13:45:25.873Z,18.10
2022-08-29T13:48:15.029Z,18.85
2022-08-29T13:50:49.643Z,14.93
2022-08-29T13:53:18.858Z,11.98
2022-08-29T13:55:48.063Z,16.23
2022-08-29T13:58:20.734Z,10.88
2022-08-29T14:00:53.443Z,15.90
2022-08-29T14:03:23.443Z,14.10
2022-08-29T14:05:55.899Z,20.83
2022-08-29T14:08:26.235Z,15.48
2022-08-29T14:11:00.383Z,16.42
2022-08-29T14:16:08.107Z,11.70
2022-08-29T14:18:37.589Z,18.15
2022-08-29T14:21:06.761Z,11.93
2022-08-29T14:23:36.368Z,12.80
2022-08-29T14:26:06.604Z,14.73
2022-08-29T14:28:43.876Z,23.58
2022-08-29T14:31:18.768Z,33.05
2022-08-29T14:33:52.997Z,15.00
2022-08-29T14:36:25.634Z,15.57
2022-08-29T14:39:04.165Z,12.10
2022-08-29T14:41:33.278Z,16.65
2022-08-29T14:44:02.711Z,11.13
2022-08-29T14:46:34.002Z,11.68
2022-08-29T14:49:04.255Z,13.55
2022-08-29T14:51:33.562Z,13.98
2022-08-29T14:54:03.099Z,15.07
2022-08-29T14:56:48.111Z,12.27
2022-08-29T14:59:18.635Z,14.95
2022-08-29T15:01:54.552Z,12.20
2022-08-29T15:04:35.457Z,12.75
2022-08-29T15:07:09.920Z,13.35
2022-08-29T15:09:41.335Z,15.52
2022-08-29T15:14:42.067Z,13.65
2022-08-29T15:17:14.446Z,15.88
2022-08-29T15:22:37.958Z,12.35
2022-08-29T15:25:08.534Z,10.73
2022-08-29T15:27:37.669Z,14.27
2022-08-29T15:30:07.909Z,12.70
2022-08-29T15:32:40.355Z,9.45
2022-08-29T15:35:14.169Z,10.70
2022-08-29T15:37:44.716Z,15.15
2022-08-29T15:40:14.541Z,16.60
2022-08-29T15:42:50.034Z,12.30
2022-08-29T15:45:19.157Z,11.60
2022-08-29T15:47:54.385Z,14.57
2022-08-29T15:50:24.660Z,15.85
2022-08-29T15:52:54.178Z,13.63
2022-08-29T15:57:54.308Z,14.27
2022-08-29T16:00:30.639Z,11.85
2022-08-29T16:03:10.390Z,9.15
2022-08-29T16:05:40.631Z,12.70
2022-08-29T16:08:10.593Z,9.70
2022-08-29T16:10:46.064Z,14.43
2022-08-29T16:13:15.266Z,9.25
2022-08-29T16:15:44.495Z,10.48
2022-08-29T16:18:15.600Z,13.45
2022-08-29T16:20:44.871Z,17.45
2022-08-29T16:23:15.580Z,15.38
2022-08-29T16:25:49.897Z,11.52
2022-08-29T16:28:19.298Z,11.32
2022-08-29T16:30:52.721Z,9.50
2022-08-29T16:33:29.594Z,11.13
2022-08-29T16:36:00.284Z,9.23
2022-08-29T16:38:32.898Z,9.88
2022-08-29T16:41:08.209Z,11.70
2022-08-29T16:43:39.185Z,9.93
2022-08-29T16:46:09.331Z,13.75
2022-08-29T16:48:41.147Z,11.52
2022-08-29T16:51:10.869Z,9.68
2022-08-29T16:53:40.905Z,11.82
2022-08-29T16:56:13.737Z,13.07
2022-08-29T16:58:56.660Z,17.08
2022-08-29T17:01:25.942Z,8.73
2022-08-29T17:03:57.276Z,14.02
2022-08-29T17:06:26.494Z,15.40
2022-08-29T17:11:27.319Z,23.13
2022-08-29T17:13:55.049Z,17.27
2022-08-29T17:16:23.864Z,22.23
2022-08-29T17:18:53.327Z,20.20
2022-08-29T17:21:30.010Z,14.10
2022-08-29T17:23:59.720Z,21.15
2022-08-29T17:26:34.633Z,17.45
2022-08-29T17:29:09.137Z,17.73
2022-08-29T17:31:41.249Z,20.13
2022-08-29T17:34:16.746Z,15.40
2022-08-29T17:36:49.191Z,14.45
2022-08-29T17:39:20.036Z,19.02
2022-08-29T17:41:52.299Z,19.90
2022-08-29T17:44:22.043Z,13.65
2022-08-29T17:46:56.608Z,20.42
2022-08-29T17:49:27.082Z,14.48
2022-08-29T17:51:58.873Z,20.10
2022-08-29T17:54:28.417Z,17.92
2022-08-29T17:56:59.592Z,17.63
2022-08-29T17:59:35.740Z,17.08
2022-08-29T18:02:05.750Z,21.50
2022-08-29T18:04:34.965Z,19.98
2022-08-29T18:07:06.413Z,28.02
2022-08-29T18:09:35.977Z,19.70
2022-08-29T18:12:05.705Z,20.20
2022-08-29T18:14:34.935Z,18.20
2022-08-29T18:17:04.211Z,17.65
2022-08-29T18:19:33.742Z,24.70
2022-08-29T18:22:02.981Z,20.67
2022-08-29T18:24:39.443Z,20.92
2022-08-29T18:27:08.736Z,17.45
2022-08-29T18:29:38.061Z,23.30
2022-08-29T18:34:47.693Z,18.95
2022-08-29T18:37:17.660Z,18.05
2022-08-29T18:39:48.956Z,18.92
2022-08-29T18:42:37.152Z,11.85
2022-08-29T18:45:10.081Z,18.23
2022-08-29T18:47:39.622Z,13.48
2022-08-29T18:50:25.103Z,13.73
2022-08-29T18:52:55.044Z,15.38
2022-08-29T18:55:28.521Z,16.17
2022-08-29T18:57:58.308Z,20.88
2022-08-29T19:00:28.472Z,17.52
2022-08-29T19:05:42.222Z,20.05
2022-08-29T19:08:11.711Z,18.98
2022-08-29T19:10:42.975Z,21.17
2022-08-29T19:13:12.253Z,20.58
2022-08-29T19:15:48.071Z,17.35
2022-08-29T19:18:18.744Z,14.67
2022-08-29T19:21:01.189Z,15.55
2022-08-29T19:23:32.289Z,14.45
2022-08-29T19:26:07.608Z,18.08
2022-08-29T19:28:37.026Z,17.92
2022-08-29T19:31:06.497Z,16.60
2022-08-29T19:33:36.713Z,17.17
2022-08-29T19:36:13.932Z,23.17
2022-08-29T19:38:43.796Z,19.38
2022-08-29T19:41:17.125Z,17.88
2022-08-29T19:43:46.423Z,22.95
2022-08-29T19:46:18.364Z,17.55
2022-08-29T19:48:50.864Z,14.73
2022-08-29T19:51:24.742Z,18.55
2022-08-29T19:53:56.256Z,15.85
2022-08-29T19:56:28.781Z,17.92
2022-08-29T19:58:59.135Z,16.67
2022-08-29T20:01:29.040Z,17.40
2022-08-29T20:03:58.211Z,25.75
2022-08-29T20:06:27.732Z,24.23
2022-08-29T20:08:58.272Z,22.08
2022-08-29T20:11:30.560Z,13.43
2022-08-29T20:14:07.315Z,13.60
2022-08-29T20:16:41.336Z,16.67
2022-08-29T20:19:11.117Z,16.73
2022-08-29T20:21:40.642Z,17.52
2022-08-29T20:24:15.472Z,18.08
2022-08-29T20:26:49.374Z,21.27
2022-08-29T20:29:26.752Z,20.00
2022-08-29T20:31:57.330Z,16.58
2022-08-29T20:34:30.064Z,16.90
2022-08-29T20:37:09.953Z,22.55
2022-08-29T20:39:46.431Z,18.92
2022-08-29T20:42:21.477Z,18.90
2022-08-29T20:44:50.858Z,22.88
2022-08-29T20:47:22.232Z,20.63
2022-08-29T20:49:52.140Z,17.63
2022-08-29T20:52:21.660Z,18.27
2022-08-29T20:54:51.320Z,15.48
2022-08-29T20:57:22.425Z,24.38
2022-08-29T20:59:53.624Z,17.23
2022-08-29T21:02:28.081Z,19.05
2022-08-29T21:05:16.105Z,20.17
2022-08-29T21:07:47.132Z,19.92
2022-08-29T21:10:17.104Z,30.48
2022-08-29T21:12:48.285Z,19.33
2022-08-29T21:15:17.634Z,22.65
2022-08-29T21:17:46.876Z,17.85
2022-08-29T21:20:16.331Z,24.00
2022-08-29T21:22:45.640Z,20.67
2022-08-29T21:25:20.238Z,21.98
2022-08-29T21:27:51.476Z,24.95
2022-08-29T21:32:56.540Z,23.10
2022-08-29T21:35:25.696Z,21.05
2022-08-29T21:37:55.011Z,16.60
2022-08-29T21:40:25.471Z,17.95
2022-08-29T21:42:56.772Z,23.42
2022-08-29T21:45:25.915Z,17.95
2022-08-29T21:47:57.365Z,21.60
2022-08-29T21:52:56.550Z,19.52
2022-08-29T21:55:26.429Z,12.90
2022-08-29T21:57:59.283Z,25.30
2022-08-29T22:00:32.115Z,17.30
2022-08-29T22:03:02.951Z,22.58
2022-08-29T22:05:40.761Z,17.17
2022-08-29T22:08:13.228Z,18.65
2022-08-29T22:10:44.741Z,24.50
2022-08-29T22:13:16.284Z,21.48
2022-08-29T22:16:10.173Z,19.80
2022-08-29T22:18:39.364Z,17.20
2022-08-29T22:21:13.379Z,16.42
2022-08-29T22:26:19.376Z,22.73
2022-08-29T22:28:50.815Z,15.52
2022-08-29T22:31:20.655Z,13.90
2022-08-29T22:33:50.803Z,15.52
2022-08-29T22:36:22.899Z,17.75
2022-08-29T22:38:56.666Z,15.18
2022-08-29T22:41:32.165Z,25.98
2022-08-29T22:44:42.398Z,18.13
2022-08-29T22:46:53.592Z,16.88
2022-08-29T22:49:25.538Z,21.73
2022-08-29T22:52:02.640Z,16.02
2022-08-29T22:54:41.422Z,14.38
2022-08-29T22:57:13.583Z,19.42
2022-08-29T22:59:45.793Z,15.30
2022-08-29T23:02:15.554Z,18.80
2022-08-29T23:04:47.108Z,18.83
2022-08-29T23:07:17.078Z,17.38
2022-08-29T23:09:46.390Z,18.73
2022-08-29T23:12:17.099Z,20.42
2022-08-29T23:14:48.512Z,17.48
2022-08-29T23:17:19.568Z,19.75
2022-08-29T23:19:49.949Z,20.20
2022-08-29T23:22:25.578Z,17.83
2022-08-29T23:24:58.838Z,17.02
2022-08-29T23:27:29.275Z,16.50
2022-08-29T23:30:13.944Z,14.82
2022-08-29T23:32:46.996Z,16.35
2022-08-29T23:35:16.269Z,15.10
2022-08-29T23:37:46.872Z,14.57
2022-08-29T23:40:16.259Z,20.13
2022-08-29T23:42:50.650Z,14.10
2022-08-29T23:45:22.012Z,18.05
2022-08-29T23:47:52.018Z,16.63
2022-08-29T23:50:21.377Z,15.70
2022-08-29T23:52:50.579Z,15.70
2022-08-29T23:55:25.038Z,14.18
2022-08-29T23:58:04.633Z,15.70
